createdAt,value
2018-07-15T00:00:15.674Z,23.62
2018-07-15T00:01:15.675Z,23.62
2018-07-15T00:02:15.682Z,23.60
2018-07-15T00:03:15.680Z,23.54
2018-07-15T00:04:15.671Z,23.57
2018-07-15T00:05:15.673Z,23.50
2018-07-15T00:06:15.680Z,23.56
2018-07-15T00:07:15.684Z,23.39
2018-07-15T00:08:15.676Z,23.39
2018-07-15T00:09:15.676Z,23.37
2018-07-15T00:10:15.683Z,23.37
2018-07-15T00:11:15.683Z,23.26
2018-07-15T00:12:15.676Z,23.32
2018-07-15T00:13:15.682Z,23.22
2018-07-15T00:14:15.675Z,23.26
2018-07-15T00:15:15.673Z,23.21
2018-07-15T00:16:15.670Z,23.22
2018-07-15T00:17:15.672Z,23.23
2018-07-15T00:18:15.667Z,23.31
2018-07-15T00:19:15.667Z,23.34
2018-07-15T00:20:15.736Z,23.22
2018-07-15T00:21:15.664Z,23.16
2018-07-15T00:22:15.689Z,23.25
2018-07-15T00:23:15.690Z,23.18
2018-07-15T00:24:15.685Z,23.22
2018-07-15T00:25:15.671Z,23.23
2018-07-15T00:26:15.666Z,23.07
2018-07-15T00:27:15.663Z,23.16
2018-07-15T00:28:15.661Z,23.12
2018-07-15T00:29:15.661Z,23.22
2018-07-15T00:30:15.660Z,23.09
2018-07-15T00:31:15.680Z,23.04
2018-07-15T00:32:15.664Z,23.19
2018-07-15T00:33:15.659Z,23.19
2018-07-15T00:34:15.668Z,23.18
2018-07-15T00:35:15.667Z,23.09
2018-07-15T00:36:15.661Z,23.12
2018-07-15T00:37:15.657Z,23.09
2018-07-15T00:38:15.657Z,23.12
2018-07-15T00:39:15.656Z,23.09
2018-07-15T00:40:15.654Z,23.06
2018-07-15T00:41:15.658Z,23.07
2018-07-15T00:42:15.688Z,23.09
2018-07-15T00:43:15.654Z,23.11
2018-07-15T00:44:15.670Z,23.00
2018-07-15T00:45:15.656Z,23.00
2018-07-15T00:46:15.652Z,22.97
2018-07-15T00:47:15.652Z,22.97
2018-07-15T00:48:15.651Z,22.94
2018-07-15T00:49:15.651Z,23.00
2018-07-15T00:50:15.655Z,22.97
2018-07-15T00:51:15.661Z,22.96
2018-07-15T00:52:15.656Z,22.96
2018-07-15T00:53:15.662Z,22.94
2018-07-15T00:54:15.648Z,22.97
2018-07-15T00:55:15.711Z,22.94
2018-07-15T00:56:15.646Z,23.01
2018-07-15T00:57:15.661Z,23.01
2018-07-15T00:58:15.649Z,23.00
2018-07-15T00:59:15.652Z,23.00
2018-07-15T01:00:15.644Z,22.97
2018-07-15T01:01:15.645Z,23.00
2018-07-15T01:02:15.651Z,23.03
2018-07-15T01:03:15.664Z,22.94
2018-07-15T01:04:15.673Z,22.99
2018-07-15T01:05:15.651Z,22.99
2018-07-15T01:06:15.643Z,22.96
2018-07-15T01:07:15.640Z,22.97
2018-07-15T01:08:15.647Z,23.00
2018-07-15T01:09:15.638Z,23.09
2018-07-15T01:10:15.648Z,23.04
2018-07-15T01:11:15.644Z,23.01
2018-07-15T01:12:15.636Z,22.99
2018-07-15T01:13:15.649Z,23.01
2018-07-15T01:14:15.636Z,22.97
2018-07-15T01:15:15.638Z,23.09
2018-07-15T01:16:15.634Z,22.96
2018-07-15T01:17:15.633Z,22.96
2018-07-15T01:18:15.641Z,22.99
2018-07-15T01:19:15.641Z,22.93
2018-07-15T01:20:15.631Z,22.91
2018-07-15T01:21:15.645Z,22.91
2018-07-15T01:22:15.631Z,22.88
2018-07-15T01:23:15.637Z,22.89
2018-07-15T01:24:15.634Z,22.97
2018-07-15T01:25:15.629Z,23.04
2018-07-15T01:26:15.626Z,22.94
2018-07-15T01:27:15.626Z,22.94
2018-07-15T01:28:15.622Z,22.86
2018-07-15T01:29:15.621Z,22.91
2018-07-15T01:30:15.637Z,23.04
2018-07-15T01:31:15.627Z,23.00
2018-07-15T01:32:15.628Z,22.88
2018-07-15T01:33:15.624Z,22.97
2018-07-15T01:34:15.619Z,22.82
2018-07-15T01:35:15.616Z,22.89
2018-07-15T01:36:15.627Z,22.76
2018-07-15T01:37:15.622Z,22.70
2018-07-15T01:38:15.616Z,22.61
2018-07-15T01:39:15.614Z,22.52
2018-07-15T01:40:15.612Z,22.46
2018-07-15T01:41:15.618Z,22.31
2018-07-15T01:42:15.615Z,22.35
2018-07-15T01:43:15.612Z,22.24
2018-07-15T01:44:15.611Z,22.24
2018-07-15T01:45:15.612Z,22.24
2018-07-15T01:46:15.605Z,22.24
2018-07-15T01:47:15.606Z,22.15
2018-07-15T01:48:15.609Z,22.05
2018-07-15T01:49:15.601Z,22.09
2018-07-15T01:50:15.613Z,22.06
2018-07-15T01:51:15.605Z,22.05
2018-07-15T01:52:15.612Z,22.06
2018-07-15T01:53:15.603Z,22.08
2018-07-15T01:54:15.594Z,22.04
2018-07-15T01:55:15.599Z,22.08
2018-07-15T01:56:15.591Z,22.05
2018-07-15T01:57:15.589Z,22.05
2018-07-15T01:58:15.586Z,22.05
2018-07-15T01:59:15.586Z,21.98
2018-07-15T02:00:15.582Z,22.01
2018-07-15T02:01:15.582Z,21.98
2018-07-15T02:02:15.589Z,21.91
2018-07-15T02:03:15.581Z,21.85
2018-07-15T02:04:15.579Z,21.91
2018-07-15T02:05:15.589Z,21.98
2018-07-15T02:06:15.579Z,21.91
2018-07-15T02:07:15.577Z,21.98
2018-07-15T02:08:15.577Z,21.83
2018-07-15T02:09:15.570Z,21.82
2018-07-15T02:10:15.566Z,21.77
2018-07-15T02:11:15.566Z,21.70
2018-07-15T02:12:15.572Z,21.64
2018-07-15T02:13:15.575Z,21.63
2018-07-15T02:14:15.565Z,21.58
2018-07-15T02:15:15.559Z,21.63
2018-07-15T02:16:15.558Z,21.55
2018-07-15T02:17:15.571Z,21.63
2018-07-15T02:18:15.555Z,21.58
2018-07-15T02:19:15.555Z,21.58
2018-07-15T02:20:15.557Z,21.59
2018-07-15T02:21:15.550Z,21.64
2018-07-15T02:22:15.549Z,21.70
2018-07-15T02:23:15.550Z,21.67
2018-07-15T02:24:15.550Z,21.77
2018-07-15T02:25:15.552Z,21.73
2018-07-15T02:26:15.549Z,21.71
2018-07-15T02:27:15.540Z,21.70
2018-07-15T02:28:15.538Z,21.59
2018-07-15T02:29:15.537Z,21.49
2018-07-15T02:30:15.553Z,21.37
2018-07-15T02:31:15.534Z,21.33
2018-07-15T02:32:15.536Z,21.30
2018-07-15T02:33:15.539Z,21.21
2018-07-15T02:34:15.537Z,21.24
2018-07-15T02:35:15.533Z,21.15
2018-07-15T02:36:15.526Z,21.16
2018-07-15T02:37:15.532Z,21.19
2018-07-15T02:38:15.530Z,21.15
2018-07-15T02:39:15.525Z,21.13
2018-07-15T02:40:15.527Z,21.13
2018-07-15T02:41:15.520Z,21.06
2018-07-15T02:42:15.600Z,21.08
2018-07-15T02:43:15.515Z,21.06
2018-07-15T02:44:15.509Z,21.13
2018-07-15T02:45:15.598Z,21.09
2018-07-15T02:46:15.603Z,21.18
2018-07-15T02:47:15.506Z,21.19
2018-07-15T02:48:15.509Z,21.21
2018-07-15T02:49:15.548Z,21.12
2018-07-15T02:50:15.517Z,21.12
2018-07-15T02:51:15.500Z,21.16
2018-07-15T02:52:15.569Z,21.18
2018-07-15T02:53:15.495Z,21.11
2018-07-15T02:54:15.494Z,21.19
2018-07-15T02:55:15.513Z,21.18
2018-07-15T02:56:15.489Z,21.16
2018-07-15T02:57:15.488Z,21.16
2018-07-15T02:58:15.488Z,21.13
2018-07-15T02:59:15.491Z,21.15
2018-07-15T03:00:15.491Z,21.15
2018-07-15T03:01:15.483Z,21.18
2018-07-15T03:02:15.546Z,21.19
2018-07-15T03:03:15.479Z,21.22
2018-07-15T03:04:15.475Z,21.27
2018-07-15T03:05:15.571Z,21.19
2018-07-15T03:06:15.484Z,21.21
2018-07-15T03:07:15.485Z,21.22
2018-07-15T03:08:15.565Z,21.18
2018-07-15T03:09:15.549Z,21.16
2018-07-15T03:10:15.467Z,21.16
2018-07-15T03:11:15.468Z,21.19
2018-07-15T03:12:15.505Z,21.24
2018-07-15T03:13:15.475Z,21.22
2018-07-15T03:14:15.468Z,21.15
2018-07-15T03:15:15.526Z,21.16
2018-07-15T03:16:15.456Z,21.18
2018-07-15T03:17:15.523Z,21.18
2018-07-15T03:18:15.527Z,21.19
2018-07-15T03:19:15.456Z,21.16
2018-07-15T03:20:15.453Z,21.13
2018-07-15T03:21:15.447Z,21.11
2018-07-15T03:22:15.446Z,21.18
2018-07-15T03:23:15.449Z,21.13
2018-07-15T03:24:15.442Z,21.13
2018-07-15T03:25:15.499Z,21.08
2018-07-15T03:26:15.445Z,21.15
2018-07-15T03:27:15.440Z,21.15
2018-07-15T03:28:15.522Z,21.11
2018-07-15T03:29:15.438Z,21.13
2018-07-15T03:30:15.442Z,21.08
2018-07-15T03:31:15.514Z,21.11
2018-07-15T03:32:15.510Z,21.00
2018-07-15T03:33:15.431Z,21.09
2018-07-15T03:34:15.596Z,21.11
2018-07-15T03:35:15.431Z,21.15
2018-07-15T03:36:15.427Z,21.13
2018-07-15T03:37:15.424Z,21.06
2018-07-15T03:38:15.497Z,21.00
2018-07-15T03:39:15.433Z,21.03
2018-07-15T03:40:15.421Z,20.98
2018-07-15T03:41:15.512Z,20.91
2018-07-15T03:42:15.417Z,20.93
2018-07-15T03:43:15.417Z,20.93
2018-07-15T03:44:15.502Z,20.90
2018-07-15T03:45:15.418Z,20.97
2018-07-15T03:46:15.408Z,20.90
2018-07-15T03:47:15.407Z,20.90
2018-07-15T03:48:15.407Z,20.88
2018-07-15T03:49:15.402Z,20.76
2018-07-15T03:50:15.401Z,20.81
2018-07-15T03:51:15.472Z,20.73
2018-07-15T03:52:15.396Z,20.81
2018-07-15T03:53:15.396Z,20.88
2018-07-15T03:54:15.474Z,20.88
2018-07-15T03:55:15.461Z,20.83
2018-07-15T03:56:15.390Z,20.83
2018-07-15T03:57:15.392Z,20.85
2018-07-15T03:58:15.400Z,20.76
2018-07-15T03:59:15.384Z,20.75
2018-07-15T04:00:15.390Z,20.66
2018-07-15T04:01:15.440Z,20.58
2018-07-15T04:02:15.382Z,20.71
2018-07-15T04:03:15.387Z,20.66
2018-07-15T04:04:15.382Z,20.60
2018-07-15T04:05:15.375Z,20.48
2018-07-15T04:06:15.375Z,20.56
2018-07-15T04:07:15.376Z,20.50
2018-07-15T04:08:15.374Z,20.50
2018-07-15T04:09:15.369Z,20.56
2018-07-15T04:10:15.370Z,20.53
2018-07-15T04:11:15.378Z,20.54
2018-07-15T04:12:15.371Z,20.48
2018-07-15T04:13:15.365Z,20.42
2018-07-15T04:14:15.372Z,20.46
2018-07-15T04:15:15.361Z,20.50
2018-07-15T04:16:15.355Z,20.50
2018-07-15T04:17:15.366Z,20.48
2018-07-15T04:18:15.354Z,20.38
2018-07-15T04:19:15.351Z,20.46
2018-07-15T04:20:15.346Z,20.54
2018-07-15T04:21:15.348Z,20.50
2018-07-15T04:22:15.349Z,20.54
2018-07-15T04:23:15.341Z,20.50
2018-07-15T04:24:15.337Z,20.57
2018-07-15T04:25:15.340Z,20.69
2018-07-15T04:26:15.339Z,20.68
2018-07-15T04:27:15.334Z,20.68
2018-07-15T04:28:15.370Z,20.68
2018-07-15T04:29:15.329Z,20.63
2018-07-15T04:30:15.335Z,20.75
2018-07-15T04:31:15.333Z,20.75
2018-07-15T04:32:15.327Z,20.72
2018-07-15T04:33:15.323Z,20.73
2018-07-15T04:34:15.320Z,20.76
2018-07-15T04:35:15.330Z,20.90
2018-07-15T04:36:15.315Z,20.88
2018-07-15T04:37:15.396Z,20.96
2018-07-15T04:38:15.321Z,20.93
2018-07-15T04:39:15.312Z,20.96
2018-07-15T04:40:15.313Z,20.98
2018-07-15T04:41:15.312Z,21.01
2018-07-15T04:42:15.306Z,21.16
2018-07-15T04:43:15.304Z,21.22
2018-07-15T04:44:15.310Z,21.31
2018-07-15T04:45:15.311Z,21.27
2018-07-15T04:46:15.298Z,21.36
2018-07-15T04:47:15.300Z,21.36
2018-07-15T04:48:15.294Z,21.33
2018-07-15T04:49:15.292Z,21.74
2018-07-15T04:50:15.294Z,22.23
2018-07-15T04:51:15.292Z,22.84
2018-07-15T04:52:15.289Z,23.63
2018-07-15T04:53:15.291Z,24.24
2018-07-15T04:54:15.287Z,24.79
2018-07-15T04:55:15.295Z,25.19
2018-07-15T04:56:15.293Z,25.64
2018-07-15T04:57:15.292Z,25.96
2018-07-15T04:58:15.290Z,26.31
2018-07-15T04:59:15.289Z,26.54
2018-07-15T05:00:15.287Z,26.75
2018-07-15T05:01:15.298Z,27.12
2018-07-15T05:02:15.290Z,27.28
2018-07-15T05:03:15.294Z,27.63
2018-07-15T05:04:15.290Z,27.84
2018-07-15T05:05:15.296Z,28.08
2018-07-15T05:06:15.373Z,28.27
2018-07-15T05:07:15.355Z,28.39
2018-07-15T05:08:15.303Z,28.40
2018-07-15T05:09:15.382Z,28.45
2018-07-15T05:10:15.320Z,28.52
2018-07-15T05:11:15.403Z,28.69
2018-07-15T05:12:15.328Z,28.69
2018-07-15T05:13:15.335Z,28.58
2018-07-15T05:14:15.329Z,28.43
2018-07-15T05:15:15.341Z,28.55
2018-07-15T05:16:15.361Z,28.82
2018-07-15T05:17:15.350Z,29.07
2018-07-15T05:18:15.348Z,29.08
2018-07-15T05:19:15.382Z,29.11
2018-07-15T05:20:15.364Z,29.26
2018-07-15T05:21:15.359Z,29.27
2018-07-15T05:22:15.394Z,29.10
2018-07-15T05:23:15.381Z,29.08
2018-07-15T05:24:15.371Z,29.08
2018-07-15T05:25:15.378Z,28.87
2018-07-15T05:26:15.387Z,28.28
2018-07-15T05:27:15.394Z,28.09
2018-07-15T05:28:15.390Z,27.98
2018-07-15T05:29:15.405Z,27.81
2018-07-15T05:30:15.403Z,27.66
2018-07-15T05:31:15.413Z,27.62
2018-07-15T05:32:15.408Z,27.45
2018-07-15T05:33:15.406Z,27.21
2018-07-15T05:34:15.478Z,27.23
2018-07-15T05:35:15.411Z,27.06
2018-07-15T05:36:15.414Z,27.05
2018-07-15T05:37:15.478Z,26.98
2018-07-15T05:38:15.420Z,26.94
2018-07-15T05:39:15.422Z,26.83
2018-07-15T05:40:15.433Z,26.75
2018-07-15T05:41:15.438Z,26.59
2018-07-15T05:42:15.435Z,26.53
2018-07-15T05:43:15.438Z,26.49
2018-07-15T05:44:15.480Z,26.36
2018-07-15T05:45:15.439Z,26.38
2018-07-15T05:46:15.447Z,26.31
2018-07-15T05:47:15.476Z,26.19
2018-07-15T05:48:15.459Z,26.13
2018-07-15T05:49:15.449Z,26.09
2018-07-15T05:50:15.489Z,26.03
2018-07-15T05:51:15.465Z,25.97
2018-07-15T05:52:15.463Z,25.97
2018-07-15T05:53:15.517Z,25.90
2018-07-15T05:54:15.461Z,25.85
2018-07-15T05:55:15.462Z,25.76
2018-07-15T05:56:15.461Z,25.72
2018-07-15T05:57:15.503Z,25.67
2018-07-15T05:58:15.465Z,25.71
2018-07-15T05:59:15.530Z,25.78
2018-07-15T06:00:15.476Z,25.71
2018-07-15T06:01:15.470Z,25.69
2018-07-15T06:02:15.476Z,25.74
2018-07-15T06:03:15.473Z,25.74
2018-07-15T06:04:15.483Z,25.74
2018-07-15T06:05:15.481Z,25.86
2018-07-15T06:06:15.487Z,25.90
2018-07-15T06:07:15.480Z,25.83
2018-07-15T06:08:15.482Z,25.96
2018-07-15T06:09:15.492Z,25.81
2018-07-15T06:10:15.486Z,25.96
2018-07-15T06:11:15.493Z,25.96
2018-07-15T06:12:15.492Z,25.98
2018-07-15T06:13:15.504Z,25.93
2018-07-15T06:14:15.495Z,25.94
2018-07-15T06:15:15.527Z,25.96
2018-07-15T06:16:15.499Z,25.94
2018-07-15T06:17:15.497Z,26.04
2018-07-15T06:18:15.559Z,26.03
2018-07-15T06:19:15.523Z,25.96
2018-07-15T06:20:15.502Z,26.09
2018-07-15T06:21:15.507Z,26.06
2018-07-15T06:22:15.541Z,26.01
2018-07-15T06:23:15.513Z,26.23
2018-07-15T06:24:15.509Z,26.21
2018-07-15T06:25:15.511Z,26.13
2018-07-15T06:26:15.525Z,26.09
2018-07-15T06:27:15.522Z,26.01
2018-07-15T06:28:15.553Z,26.09
2018-07-15T06:29:15.518Z,26.16
2018-07-15T06:30:15.518Z,26.06
2018-07-15T06:31:15.577Z,26.04
2018-07-15T06:32:15.525Z,26.08
2018-07-15T06:33:15.525Z,26.17
2018-07-15T06:34:15.571Z,26.04
2018-07-15T06:35:15.535Z,26.20
2018-07-15T06:36:15.536Z,26.21
2018-07-15T06:37:15.592Z,26.29
2018-07-15T06:38:15.533Z,26.31
2018-07-15T06:39:15.535Z,26.36
2018-07-15T06:40:15.540Z,26.42
2018-07-15T06:41:15.542Z,26.56
2018-07-15T06:42:15.547Z,26.53
2018-07-15T06:43:15.571Z,26.50
2018-07-15T06:44:15.570Z,26.57
2018-07-15T06:45:15.549Z,26.50
2018-07-15T06:46:15.557Z,26.49
2018-07-15T06:47:15.585Z,26.51
2018-07-15T06:48:15.551Z,26.47
2018-07-15T06:49:15.625Z,26.49
2018-07-15T06:50:15.605Z,26.59
2018-07-15T06:51:15.556Z,26.72
2018-07-15T06:52:15.558Z,26.76
2018-07-15T06:53:15.604Z,26.83
2018-07-15T06:54:15.562Z,26.81
2018-07-15T06:55:15.579Z,26.75
2018-07-15T06:56:15.625Z,26.84
2018-07-15T06:57:15.583Z,26.86
2018-07-15T06:58:15.573Z,26.83
2018-07-15T06:59:15.573Z,26.93
2018-07-15T07:00:15.593Z,26.93
2018-07-15T07:01:15.583Z,26.90
2018-07-15T07:02:15.587Z,26.96
2018-07-15T07:03:15.596Z,26.96
2018-07-15T07:04:15.596Z,26.94
2018-07-15T07:05:15.590Z,27.01
2018-07-15T07:06:15.622Z,27.05
2018-07-15T07:07:15.623Z,26.96
2018-07-15T07:08:15.605Z,27.08
2018-07-15T07:09:15.633Z,27.05
2018-07-15T07:10:15.601Z,27.18
2018-07-15T07:11:15.600Z,27.18
2018-07-15T07:12:15.633Z,27.24
2018-07-15T07:13:15.607Z,27.27
2018-07-15T07:14:15.649Z,27.21
2018-07-15T07:15:15.661Z,27.18
2018-07-15T07:16:15.618Z,27.20
2018-07-15T07:17:15.622Z,27.28
2018-07-15T07:18:15.615Z,27.34
2018-07-15T07:19:15.623Z,27.33
2018-07-15T07:20:15.619Z,27.45
2018-07-15T07:21:15.624Z,27.46
2018-07-15T07:22:15.631Z,27.63
2018-07-15T07:23:15.631Z,27.50
2018-07-15T07:24:15.633Z,27.58
2018-07-15T07:25:15.646Z,27.58
2018-07-15T07:26:15.654Z,27.59
2018-07-15T07:27:15.639Z,27.66
2018-07-15T07:28:15.676Z,27.63
2018-07-15T07:29:15.644Z,27.55
2018-07-15T07:30:15.648Z,27.59
2018-07-15T07:31:15.689Z,27.61
2018-07-15T07:32:15.652Z,27.58
2018-07-15T07:33:15.661Z,27.62
2018-07-15T07:34:15.685Z,27.69
2018-07-15T07:35:15.727Z,27.69
2018-07-15T07:36:15.662Z,27.72
2018-07-15T07:37:15.705Z,27.80
2018-07-15T07:38:15.698Z,27.84
2018-07-15T07:39:15.677Z,27.84
2018-07-15T07:40:15.680Z,27.86
2018-07-15T07:41:15.722Z,27.95
2018-07-15T07:42:15.693Z,28.01
2018-07-15T07:43:15.681Z,27.96
2018-07-15T07:44:15.689Z,28.03
2018-07-15T07:45:15.694Z,28.06
2018-07-15T07:46:15.692Z,27.96
2018-07-15T07:47:15.698Z,28.02
2018-07-15T07:48:15.696Z,28.11
2018-07-15T07:49:15.707Z,28.11
2018-07-15T07:50:15.711Z,28.14
2018-07-15T07:51:15.708Z,28.09
2018-07-15T07:52:15.708Z,28.11
2018-07-15T07:53:15.734Z,28.09
2018-07-15T07:54:15.731Z,28.24
2018-07-15T07:55:15.723Z,28.17
2018-07-15T07:56:15.769Z,28.21
2018-07-15T07:57:15.722Z,28.28
2018-07-15T07:58:15.732Z,28.20
2018-07-15T07:59:15.764Z,28.40
2018-07-15T08:00:15.741Z,28.39
2018-07-15T08:01:15.735Z,28.43
2018-07-15T08:02:15.783Z,28.45
2018-07-15T08:03:15.744Z,28.60
2018-07-15T08:04:15.745Z,28.50
2018-07-15T08:05:15.749Z,28.54
2018-07-15T08:06:15.752Z,28.51
2018-07-15T08:07:15.764Z,28.54
2018-07-15T08:08:15.758Z,28.60
2018-07-15T08:09:15.763Z,28.60
2018-07-15T08:10:15.767Z,28.64
2018-07-15T08:11:15.786Z,28.73
2018-07-15T08:12:15.774Z,28.61
2018-07-15T08:13:15.776Z,28.60
2018-07-15T08:14:15.792Z,28.67
2018-07-15T08:15:15.809Z,28.74
2018-07-15T08:16:15.787Z,28.74
2018-07-15T08:17:15.793Z,28.74
2018-07-15T08:18:15.811Z,28.70
2018-07-15T08:19:15.795Z,28.65
2018-07-15T08:20:15.800Z,28.62
2018-07-15T08:21:15.808Z,28.72
2018-07-15T08:22:15.815Z,28.70
2018-07-15T08:23:15.810Z,28.76
2018-07-15T08:24:15.821Z,28.88
2018-07-15T08:25:15.818Z,29.03
2018-07-15T08:26:15.821Z,29.03
2018-07-15T08:27:15.854Z,29.07
2018-07-15T08:28:15.923Z,29.11
2018-07-15T08:29:15.834Z,29.02
2018-07-15T08:30:15.872Z,29.05
2018-07-15T08:31:15.840Z,29.08
2018-07-15T08:32:15.851Z,29.02
2018-07-15T08:33:15.895Z,29.07
2018-07-15T08:34:15.857Z,29.07
2018-07-15T08:35:15.860Z,29.07
2018-07-15T08:36:15.859Z,29.10
2018-07-15T08:37:15.871Z,29.11
2018-07-15T08:38:15.865Z,29.17
2018-07-15T08:39:15.871Z,29.17
2018-07-15T08:40:15.873Z,29.05
2018-07-15T08:41:15.885Z,29.00
2018-07-15T08:42:15.885Z,29.03
2018-07-15T08:43:15.886Z,29.05
2018-07-15T08:44:15.889Z,28.97
2018-07-15T08:45:15.897Z,28.98
2018-07-15T08:46:15.895Z,29.05
2018-07-15T08:47:15.907Z,29.08
2018-07-15T08:48:15.903Z,29.08
2018-07-15T08:49:15.915Z,29.07
2018-07-15T08:50:15.911Z,29.07
2018-07-15T08:51:15.924Z,28.98
2018-07-15T08:52:15.972Z,28.95
2018-07-15T08:53:15.937Z,29.05
2018-07-15T08:54:15.928Z,29.11
2018-07-15T08:55:15.932Z,29.02
2018-07-15T08:56:15.938Z,29.21
2018-07-15T08:57:15.946Z,29.29
2018-07-15T08:58:15.945Z,29.39
2018-07-15T08:59:15.947Z,29.45
2018-07-15T09:00:15.951Z,29.52
2018-07-15T09:01:15.988Z,29.64
2018-07-15T09:02:15.958Z,29.58
2018-07-15T09:03:15.980Z,29.71
2018-07-15T09:04:15.969Z,29.76
2018-07-15T09:05:15.968Z,29.73
2018-07-15T09:06:15.988Z,29.69
2018-07-15T09:07:15.980Z,29.66
2018-07-15T09:08:15.990Z,29.78
2018-07-15T09:09:15.984Z,29.71
2018-07-15T09:10:16.002Z,29.81
2018-07-15T09:11:15.991Z,29.69
2018-07-15T09:12:15.996Z,29.78
2018-07-15T09:13:16.001Z,29.79
2018-07-15T09:14:16.013Z,29.85
2018-07-15T09:15:16.009Z,29.97
2018-07-15T09:16:16.044Z,30.03
2018-07-15T09:17:16.027Z,30.00
2018-07-15T09:18:16.029Z,30.04
2018-07-15T09:19:16.026Z,29.95
2018-07-15T09:20:16.030Z,30.03
2018-07-15T09:21:16.075Z,29.84
2018-07-15T09:22:16.040Z,29.84
2018-07-15T09:23:16.049Z,29.86
2018-07-15T09:24:16.049Z,29.86
2018-07-15T09:25:16.081Z,30.03
2018-07-15T09:26:16.058Z,29.95
2018-07-15T09:27:16.070Z,29.81
2018-07-15T09:28:16.066Z,29.73
2018-07-15T09:29:16.085Z,29.71
2018-07-15T09:30:16.075Z,29.69
2018-07-15T09:31:16.082Z,29.63
2018-07-15T09:32:16.111Z,29.66
2018-07-15T09:33:16.086Z,29.70
2018-07-15T09:34:16.091Z,29.78
2018-07-15T09:35:16.126Z,29.70
2018-07-15T09:36:16.107Z,29.49
2018-07-15T09:37:16.108Z,29.49
2018-07-15T09:38:16.108Z,29.48
2018-07-15T09:39:16.119Z,29.47
2018-07-15T09:40:16.117Z,29.48
2018-07-15T09:41:16.121Z,29.48
2018-07-15T09:42:16.126Z,29.52
2018-07-15T09:43:16.141Z,29.66
2018-07-15T09:44:16.132Z,29.60
2018-07-15T09:45:16.146Z,29.66
2018-07-15T09:46:16.151Z,29.76
2018-07-15T09:47:16.151Z,29.91
2018-07-15T09:48:16.158Z,30.04
2018-07-15T09:49:16.169Z,30.18
2018-07-15T09:50:16.169Z,30.25
2018-07-15T09:51:16.167Z,30.21
2018-07-15T09:52:16.168Z,30.26
2018-07-15T09:53:16.173Z,30.26
2018-07-15T09:54:16.200Z,30.15
2018-07-15T09:55:16.185Z,30.06
2018-07-15T09:56:16.195Z,30.03
2018-07-15T09:57:16.212Z,30.06
2018-07-15T09:58:16.250Z,30.16
2018-07-15T09:59:16.207Z,30.23
2018-07-15T10:00:16.229Z,30.36
2018-07-15T10:01:16.222Z,30.54
2018-07-15T10:02:16.215Z,30.49
2018-07-15T10:03:16.224Z,30.56
2018-07-15T10:04:16.228Z,30.54
2018-07-15T10:05:16.234Z,30.59
2018-07-15T10:06:16.246Z,30.60
2018-07-15T10:07:16.237Z,30.63
2018-07-15T10:08:16.244Z,30.66
2018-07-15T10:09:16.265Z,30.73
2018-07-15T10:10:16.251Z,30.79
2018-07-15T10:11:16.259Z,30.83
2018-07-15T10:12:16.258Z,30.88
2018-07-15T10:13:16.265Z,30.85
2018-07-15T10:14:16.270Z,30.90
2018-07-15T10:15:16.287Z,30.91
2018-07-15T10:16:16.286Z,30.83
2018-07-15T10:17:16.291Z,30.70
2018-07-15T10:18:16.303Z,30.76
2018-07-15T10:19:16.295Z,30.85
2018-07-15T10:20:16.306Z,30.94
2018-07-15T10:21:16.308Z,30.98
2018-07-15T10:22:16.316Z,31.01
2018-07-15T10:23:16.321Z,30.83
2018-07-15T10:24:16.318Z,30.83
2018-07-15T10:25:16.323Z,30.83
2018-07-15T10:26:16.328Z,30.90
2018-07-15T10:27:16.340Z,31.00
2018-07-15T10:28:16.335Z,30.85
2018-07-15T10:29:16.347Z,30.96
2018-07-15T10:30:16.345Z,30.94
2018-07-15T10:31:16.352Z,30.94
2018-07-15T10:32:16.359Z,31.03
2018-07-15T10:33:16.366Z,31.10
2018-07-15T10:34:16.376Z,31.04
2018-07-15T10:35:16.373Z,30.98
2018-07-15T10:36:16.374Z,31.04
2018-07-15T10:37:16.388Z,31.15
2018-07-15T10:38:16.405Z,31.22
2018-07-15T10:39:16.390Z,31.19
2018-07-15T10:40:16.402Z,31.30
2018-07-15T10:41:16.400Z,31.12
2018-07-15T10:42:16.409Z,30.94
2018-07-15T10:43:16.413Z,30.96
2018-07-15T10:44:16.427Z,30.93
2018-07-15T10:45:16.430Z,30.97
2018-07-15T10:46:16.428Z,31.03
2018-07-15T10:47:16.435Z,31.07
2018-07-15T10:48:16.439Z,31.12
2018-07-15T10:49:16.452Z,31.10
2018-07-15T10:50:16.451Z,31.13
2018-07-15T10:51:16.460Z,31.04
2018-07-15T10:52:16.466Z,31.07
2018-07-15T10:53:16.466Z,31.19
2018-07-15T10:54:16.473Z,31.20
2018-07-15T10:55:16.479Z,31.22
2018-07-15T10:56:16.484Z,31.16
2018-07-15T10:57:16.481Z,31.19
2018-07-15T10:58:16.489Z,31.31
2018-07-15T10:59:16.492Z,31.28
2018-07-15T11:00:16.499Z,31.38
2018-07-15T11:01:16.512Z,31.34
2018-07-15T11:02:16.517Z,31.40
2018-07-15T11:03:16.526Z,31.40
2018-07-15T11:04:16.522Z,31.38
2018-07-15T11:05:16.526Z,31.49
2018-07-15T11:06:16.568Z,31.57
2018-07-15T11:07:16.536Z,31.59
2018-07-15T11:08:16.541Z,31.54
2018-07-15T11:09:16.547Z,31.68
2018-07-15T11:10:16.603Z,31.65
2018-07-15T11:11:16.570Z,31.54
2018-07-15T11:12:16.566Z,31.59
2018-07-15T11:13:16.597Z,31.71
2018-07-15T11:14:16.590Z,31.71
2018-07-15T11:15:16.591Z,31.72
2018-07-15T11:16:16.592Z,31.60
2018-07-15T11:17:16.590Z,31.57
2018-07-15T11:18:16.599Z,31.74
2018-07-15T11:19:16.604Z,31.71
2018-07-15T11:20:16.605Z,31.88
2018-07-15T11:21:16.620Z,31.84
2018-07-15T11:22:16.625Z,31.91
2018-07-15T11:23:16.624Z,31.90
2018-07-15T11:24:16.628Z,31.92
2018-07-15T11:25:16.633Z,31.92
2018-07-15T11:26:16.649Z,31.95
2018-07-15T11:27:16.655Z,31.92
2018-07-15T11:28:16.661Z,31.71
2018-07-15T11:29:16.661Z,31.62
2018-07-15T11:30:16.669Z,31.72
2018-07-15T11:31:16.725Z,31.79
2018-07-15T11:32:16.684Z,31.87
2018-07-15T11:33:16.685Z,31.88
2018-07-15T11:34:16.693Z,31.99
2018-07-15T11:35:16.698Z,32.05
2018-07-15T11:36:16.698Z,31.98
2018-07-15T11:37:16.707Z,32.10
2018-07-15T11:38:16.713Z,32.27
2018-07-15T11:39:16.730Z,32.16
2018-07-15T11:40:16.729Z,32.21
2018-07-15T11:41:16.725Z,32.25
2018-07-15T11:42:16.733Z,32.36
2018-07-15T11:43:16.738Z,32.39
2018-07-15T11:44:16.743Z,32.49
2018-07-15T11:45:16.753Z,32.40
2018-07-15T11:46:16.776Z,32.17
2018-07-15T11:47:16.766Z,32.22
2018-07-15T11:48:16.792Z,32.16
2018-07-15T11:49:16.781Z,32.19
2018-07-15T11:50:16.779Z,32.17
2018-07-15T11:51:16.810Z,32.12
2018-07-15T11:52:16.793Z,32.16
2018-07-15T11:53:16.803Z,32.17
2018-07-15T11:54:16.807Z,32.12
2018-07-15T11:55:16.815Z,32.17
2018-07-15T11:56:16.813Z,32.25
2018-07-15T11:57:16.824Z,32.28
2018-07-15T11:58:16.834Z,32.35
2018-07-15T11:59:16.839Z,32.41
2018-07-15T12:00:16.843Z,32.49
2018-07-15T12:01:16.853Z,32.43
2018-07-15T12:02:16.851Z,32.53
2018-07-15T12:03:16.864Z,32.53
2018-07-15T12:04:16.861Z,32.59
2018-07-15T12:05:16.868Z,32.62
2018-07-15T12:06:16.891Z,32.65
2018-07-15T12:07:16.882Z,32.59
2018-07-15T12:08:16.885Z,32.47
2018-07-15T12:09:16.892Z,32.54
2018-07-15T12:10:16.902Z,32.53
2018-07-15T12:11:16.906Z,32.71
2018-07-15T12:12:16.915Z,32.69
2018-07-15T12:13:16.917Z,32.58
2018-07-15T12:14:16.924Z,32.68
2018-07-15T12:15:16.942Z,32.68
2018-07-15T12:16:16.935Z,32.80
2018-07-15T12:17:16.943Z,32.87
2018-07-15T12:18:16.954Z,32.83
2018-07-15T12:19:16.957Z,32.81
2018-07-15T12:20:16.962Z,33.02
2018-07-15T12:21:16.966Z,33.06
2018-07-15T12:22:16.990Z,33.12
2018-07-15T12:23:16.988Z,33.06
2018-07-15T12:24:16.987Z,32.99
2018-07-15T12:25:16.991Z,32.91
2018-07-15T12:26:17.004Z,32.96
2018-07-15T12:27:17.004Z,32.76
2018-07-15T12:28:17.105Z,32.72
2018-07-15T12:29:17.023Z,32.71
2018-07-15T12:30:17.032Z,32.61
2018-07-15T12:31:17.029Z,32.54
2018-07-15T12:32:17.047Z,32.58
2018-07-15T12:33:17.042Z,32.68
2018-07-15T12:34:17.061Z,32.65
2018-07-15T12:35:17.061Z,32.71
2018-07-15T12:36:17.061Z,32.77
2018-07-15T12:37:17.072Z,32.90
2018-07-15T12:38:17.076Z,32.73
2018-07-15T12:39:17.086Z,32.85
2018-07-15T12:40:17.086Z,32.90
2018-07-15T12:41:17.096Z,32.90
2018-07-15T12:42:17.101Z,32.49
2018-07-15T12:43:17.121Z,32.25
2018-07-15T12:44:17.122Z,32.28
2018-07-15T12:45:17.123Z,32.25
2018-07-15T12:46:17.136Z,31.97
2018-07-15T12:47:17.139Z,31.75
2018-07-15T12:48:17.137Z,31.45
2018-07-15T12:49:17.150Z,31.57
2018-07-15T12:50:17.153Z,31.72
2018-07-15T12:51:17.159Z,31.85
2018-07-15T12:52:17.162Z,31.75